sensor_id;sensor_type;location;lat;lon;timestamp;pressure;altitude;pressure_sealevel;temperature;humidity
53440;BME280;39333;47.044;15.080;2022-08-19T00:01:34;95725.13;;;19.29;67.84
53440;BME280;39333;47.044;15.080;2022-08-19T00:04:06;95719.97;;;19.41;66.27
53440;BME280;39333;47.044;15.080;2022-08-19T00:06:35;95717.06;;;19.60;66.39
53440;BME280;39333;47.044;15.080;2022-08-19T00:09:04;95725.31;;;19.72;65.99
53440;BME280;39333;47.044;15.080;2022-08-19T00:11:32;95717.56;;;19.70;65.82
53440;BME280;39333;47.044;15.080;2022-08-19T00:13:59;95731.19;;;19.74;65.02
53440;BME280;39333;47.044;15.080;2022-08-19T00:16:26;95724.09;;;19.86;65.20
53440;BME280;39333;47.044;15.080;2022-08-19T00:18:54;95703.69;;;19.85;65.26
53440;BME280;39333;47.044;15.080;2022-08-19T00:21:25;95719.75;;;19.29;68.41
53440;BME280;39333;47.044;15.080;2022-08-19T00:23:54;95724.72;;;19.13;68.41
53440;BME280;39333;47.044;15.080;2022-08-19T00:26:26;95725.75;;;19.34;67.36
53440;BME280;39333;47.044;15.080;2022-08-19T00:28:53;95725.69;;;19.48;66.79
53440;BME280;39333;47.044;15.080;2022-08-19T00:31:20;95736.69;;;19.60;65.80
53440;BME280;39333;47.044;15.080;2022-08-19T00:33:47;95729.59;;;19.64;66.16
53440;BME280;39333;47.044;15.080;2022-08-19T00:36:16;95724.09;;;19.47;66.10
53440;BME280;39333;47.044;15.080;2022-08-19T00:38:43;95728.75;;;19.55;65.93
53440;BME280;39333;47.044;15.080;2022-08-19T00:41:14;95730.31;;;19.56;65.65
53440;BME280;39333;47.044;15.080;2022-08-19T00:43:41;95725.94;;;19.60;65.48
53440;BME280;39333;47.044;15.080;2022-08-19T00:46:08;95749.97;;;19.65;65.28
53440;BME280;39333;47.044;15.080;2022-08-19T00:48:35;95764.06;;;19.40;67.31
53440;BME280;39333;47.044;15.080;2022-08-19T00:51:04;95747.03;;;19.13;68.66
53440;BME280;39333;47.044;15.080;2022-08-19T00:53:31;95737.63;;;18.80;69.99
53440;BME280;39333;47.044;15.080;2022-08-19T00:56:01;95752.16;;;18.79;68.37
53440;BME280;39333;47.044;15.080;2022-08-19T00:58:31;95760.84;;;18.98;68.37
53440;BME280;39333;47.044;15.080;2022-08-19T01:01:00;95769.47;;;19.17;67.08
53440;BME280;39333;47.044;15.080;2022-08-19T01:03:27;95775.69;;;19.27;67.29
53440;BME280;39333;47.044;15.080;2022-08-19T01:06:14;95783.66;;;19.09;69.82
53440;BME280;39333;47.044;15.080;2022-08-19T01:08:46;95782.41;;;18.71;69.63
53440;BME280;39333;47.044;15.080;2022-08-19T01:11:16;95765.13;;;18.85;68.53
53440;BME280;39333;47.044;15.080;2022-08-19T01:13:44;95753.97;;;18.92;71.09
53440;BME280;39333;47.044;15.080;2022-08-19T01:16:17;95759.72;;;18.77;70.85
53440;BME280;39333;47.044;15.080;2022-08-19T01:18:46;95754.69;;;18.84;70.15
53440;BME280;39333;47.044;15.080;2022-08-19T01:21:34;95752.63;;;19.03;69.92
53440;BME280;39333;47.044;15.080;2022-08-19T01:24:02;95749.09;;;18.94;70.20
53440;BME280;39333;47.044;15.080;2022-08-19T01:26:29;95751.28;;;18.92;69.67
53440;BME280;39333;47.044;15.080;2022-08-19T01:28:58;95747.09;;;18.77;71.41
53440;BME280;39333;47.044;15.080;2022-08-19T01:31:29;95741.63;;;18.69;71.38
53440;BME280;39333;47.044;15.080;2022-08-19T01:34:00;95734.69;;;18.90;69.73
53440;BME280;39333;47.044;15.080;2022-08-19T01:36:32;95725.75;;;19.03;68.90
53440;BME280;39333;47.044;15.080;2022-08-19T01:39:00;95711.94;;;19.18;68.04
53440;BME280;39333;47.044;15.080;2022-08-19T01:41:27;95697.09;;;19.21;67.40
53440;BME280;39333;47.044;15.080;2022-08-19T01:43:54;95693.66;;;19.29;67.67
53440;BME280;39333;47.044;15.080;2022-08-19T01:46:43;95671.00;;;19.21;68.68
53440;BME280;39333;47.044;15.080;2022-08-19T01:49:10;95687.13;;;19.21;67.66
53440;BME280;39333;47.044;15.080;2022-08-19T01:51:37;95693.59;;;19.20;67.21
53440;BME280;39333;47.044;15.080;2022-08-19T01:54:07;95689.81;;;19.21;67.49
53440;BME280;39333;47.044;15.080;2022-08-19T01:56:35;95699.16;;;19.24;66.88
53440;BME280;39333;47.044;15.080;2022-08-19T01:59:05;95711.84;;;19.32;67.17
53440;BME280;39333;47.044;15.080;2022-08-19T02:01:33;95705.38;;;19.33;66.16
53440;BME280;39333;47.044;15.080;2022-08-19T02:04:00;95706.16;;;19.34;67.19
53440;BME280;39333;47.044;15.080;2022-08-19T02:06:28;95700.31;;;19.32;66.44
53440;BME280;39333;47.044;15.080;2022-08-19T02:08:55;95702.53;;;19.30;67.01
53440;BME280;39333;47.044;15.080;2022-08-19T02:11:26;95698.50;;;18.87;70.87
53440;BME280;39333;47.044;15.080;2022-08-19T02:13:54;95687.91;;;18.82;69.09
53440;BME280;39333;47.044;15.080;2022-08-19T02:16:21;95688.31;;;18.98;68.76
53440;BME280;39333;47.044;15.080;2022-08-19T02:18:48;95688.50;;;19.10;67.38
53440;BME280;39333;47.044;15.080;2022-08-19T02:21:16;95674.97;;;19.15;67.71
53440;BME280;39333;47.044;15.080;2022-08-19T02:23:44;95672.91;;;19.21;66.99
53440;BME280;39333;47.044;15.080;2022-08-19T02:26:11;95667.09;;;19.28;67.89
53440;BME280;39333;47.044;15.080;2022-08-19T02:28:40;95670.41;;;19.33;67.81
53440;BME280;39333;47.044;15.080;2022-08-19T02:31:10;95665.41;;;19.40;66.81
53440;BME280;39333;47.044;15.080;2022-08-19T02:33:37;95669.97;;;19.40;67.26
53440;BME280;39333;47.044;15.080;2022-08-19T02:36:04;95656.72;;;19.43;66.98
53440;BME280;39333;47.044;15.080;2022-08-19T02:38:32;95652.44;;;19.42;65.44
53440;BME280;39333;47.044;15.080;2022-08-19T02:41:04;95653.25;;;19.43;66.98
53440;BME280;39333;47.044;15.080;2022-08-19T02:43:32;95650.25;;;19.44;65.30
53440;BME280;39333;47.044;15.080;2022-08-19T02:46:19;95668.94;;;19.49;66.20
53440;BME280;39333;47.044;15.080;2022-08-19T02:48:49;95677.47;;;19.51;65.58
53440;BME280;39333;47.044;15.080;2022-08-19T02:51:19;95672.53;;;19.45;67.07
53440;BME280;39333;47.044;15.080;2022-08-19T02:53:46;95674.44;;;19.44;66.56
53440;BME280;39333;47.044;15.080;2022-08-19T02:56:13;95674.38;;;19.36;66.95
53440;BME280;39333;47.044;15.080;2022-08-19T02:58:41;95681.34;;;19.37;68.28
53440;BME280;39333;47.044;15.080;2022-08-19T03:01:09;95665.50;;;19.27;67.08
53440;BME280;39333;47.044;15.080;2022-08-19T03:03:37;95666.47;;;19.31;68.09
53440;BME280;39333;47.044;15.080;2022-08-19T03:06:12;95657.34;;;19.40;67.42
53440;BME280;39333;47.044;15.080;2022-08-19T03:08:42;95651.66;;;19.42;66.92
53440;BME280;39333;47.044;15.080;2022-08-19T03:11:17;95649.25;;;19.32;67.21
53440;BME280;39333;47.044;15.080;2022-08-19T03:13:45;95654.63;;;19.32;67.77
53440;BME280;39333;47.044;15.080;2022-08-19T03:16:13;95657.66;;;19.39;67.78
53440;BME280;39333;47.044;15.080;2022-08-19T03:18:39;95660.19;;;19.44;66.95
53440;BME280;39333;47.044;15.080;2022-08-19T03:21:06;95668.78;;;19.54;67.21
53440;BME280;39333;47.044;15.080;2022-08-19T03:23:37;95677.66;;;19.55;66.41
53440;BME280;39333;47.044;15.080;2022-08-19T03:26:05;95678.59;;;19.50;67.69
53440;BME280;39333;47.044;15.080;2022-08-19T03:28:44;95693.34;;;19.31;67.17
53440;BME280;39333;47.044;15.080;2022-08-19T03:31:24;95711.91;;;19.41;67.96
53440;BME280;39333;47.044;15.080;2022-08-19T03:34:15;95800.22;;;19.34;69.68
53440;BME280;39333;47.044;15.080;2022-08-19T03:36:44;95910.28;;;18.94;70.69
53440;BME280;39333;47.044;15.080;2022-08-19T03:39:12;95900.81;;;19.55;70.33
53440;BME280;39333;47.044;15.080;2022-08-19T03:41:41;95911.38;;;19.51;70.98
53440;BME280;39333;47.044;15.080;2022-08-19T03:44:16;95910.56;;;19.29;72.83
53440;BME280;39333;47.044;15.080;2022-08-19T03:46:57;95892.75;;;18.97;75.97
53440;BME280;39333;47.044;15.080;2022-08-19T03:49:27;95882.53;;;18.85;77.03
53440;BME280;39333;47.044;15.080;2022-08-19T03:51:57;95858.50;;;18.80;77.74
53440;BME280;39333;47.044;15.080;2022-08-19T03:54:26;95845.66;;;18.77;78.20
53440;BME280;39333;47.044;15.080;2022-08-19T03:56:55;95837.66;;;18.85;76.88
53440;BME280;39333;47.044;15.080;2022-08-19T03:59:26;95841.09;;;19.00;77.00
53440;BME280;39333;47.044;15.080;2022-08-19T04:01:56;95844.56;;;19.00;76.73
53440;BME280;39333;47.044;15.080;2022-08-19T04:04:23;95823.81;;;18.92;77.26
53440;BME280;39333;47.044;15.080;2022-08-19T04:06:55;95815.16;;;18.95;75.93
53440;BME280;39333;47.044;15.080;2022-08-19T04:09:22;95805.25;;;19.04;76.06
53440;BME280;39333;47.044;15.080;2022-08-19T04:11:54;95801.19;;;19.07;76.03
53440;BME280;39333;47.044;15.080;2022-08-19T04:14:24;95806.13;;;19.13;75.73
53440;BME280;39333;47.044;15.080;2022-08-19T04:16:52;95815.16;;;19.17;75.46
53440;BME280;39333;47.044;15.080;2022-08-19T04:19:19;95825.19;;;19.26;74.78
53440;BME280;39333;47.044;15.080;2022-08-19T04:21:49;95826.38;;;19.19;75.70
53440;BME280;39333;47.044;15.080;2022-08-19T04:24:17;95823.59;;;19.25;75.15
53440;BME280;39333;47.044;15.080;2022-08-19T04:26:44;95799.78;;;19.32;74.11
53440;BME280;39333;47.044;15.080;2022-08-19T04:29:15;95788.88;;;19.37;73.96
53440;BME280;39333;47.044;15.080;2022-08-19T04:31:43;95776.09;;;19.42;73.73
53440;BME280;39333;47.044;15.080;2022-08-19T04:34:14;95762.53;;;19.47;72.59
53440;BME280;39333;47.044;15.080;2022-08-19T04:36:43;95770.97;;;19.54;73.31
53440;BME280;39333;47.044;15.080;2022-08-19T04:39:16;95750.59;;;19.62;72.21
53440;BME280;39333;47.044;15.080;2022-08-19T04:41:44;95728.31;;;19.70;71.70
53440;BME280;39333;47.044;15.080;2022-08-19T04:44:33;95726.91;;;19.73;73.52
53440;BME280;39333;47.044;15.080;2022-08-19T04:47:01;95747.28;;;19.65;72.75
53440;BME280;39333;47.044;15.080;2022-08-19T04:49:37;95775.31;;;19.64;73.35
53440;BME280;39333;47.044;15.080;2022-08-19T04:52:04;95776.03;;;19.56;73.30
53440;BME280;39333;47.044;15.080;2022-08-19T04:54:30;95790.63;;;19.64;73.21
53440;BME280;39333;47.044;15.080;2022-08-19T04:57:08;95801.06;;;19.65;73.25
53440;BME280;39333;47.044;15.080;2022-08-19T04:59:37;95797.81;;;19.77;72.41
53440;BME280;39333;47.044;15.080;2022-08-19T05:02:06;95794.03;;;19.78;72.43
53440;BME280;39333;47.044;15.080;2022-08-19T05:04:33;95788.97;;;19.85;71.26
53440;BME280;39333;47.044;15.080;2022-08-19T05:07:02;95793.28;;;19.95;71.19
53440;BME280;39333;47.044;15.080;2022-08-19T05:09:31;95795.03;;;19.99;71.54
53440;BME280;39333;47.044;15.080;2022-08-19T05:12:18;95797.41;;;19.92;70.93
53440;BME280;39333;47.044;15.080;2022-08-19T05:14:46;95810.53;;;19.94;70.62
53440;BME280;39333;47.044;15.080;2022-08-19T05:17:14;95810.06;;;19.91;70.66
53440;BME280;39333;47.044;15.080;2022-08-19T05:20:03;95819.34;;;19.85;70.39
53440;BME280;39333;47.044;15.080;2022-08-19T05:22:49;95825.84;;;19.84;70.63
53440;BME280;39333;47.044;15.080;2022-08-19T05:25:19;95823.31;;;19.88;70.36
53440;BME280;39333;47.044;15.080;2022-08-19T05:27:46;95832.81;;;19.85;73.04
53440;BME280;39333;47.044;15.080;2022-08-19T05:30:14;95839.78;;;19.86;74.06
53440;BME280;39333;47.044;15.080;2022-08-19T05:32:41;95843.56;;;19.85;74.75
53440;BME280;39333;47.044;15.080;2022-08-19T05:35:08;95830.16;;;19.94;74.03
53440;BME280;39333;47.044;15.080;2022-08-19T05:37:34;95819.53;;;19.89;75.70
53440;BME280;39333;47.044;15.080;2022-08-19T05:40:02;95824.44;;;19.87;75.89
53440;BME280;39333;47.044;15.080;2022-08-19T05:42:29;95819.28;;;19.68;77.58
53440;BME280;39333;47.044;15.080;2022-08-19T05:44:57;95816.53;;;19.90;75.01
53440;BME280;39333;47.044;15.080;2022-08-19T05:47:24;95818.38;;;20.21;73.68
53440;BME280;39333;47.044;15.080;2022-08-19T05:49:50;95832.41;;;20.40;72.82
53440;BME280;39333;47.044;15.080;2022-08-19T05:52:19;95830.50;;;20.49;73.80
53440;BME280;39333;47.044;15.080;2022-08-19T05:54:52;95827.13;;;20.35;75.70
53440;BME280;39333;47.044;15.080;2022-08-19T05:57:22;95820.69;;;20.45;73.13
53440;BME280;39333;47.044;15.080;2022-08-19T05:59:49;95835.41;;;20.39;73.77
53440;BME280;39333;47.044;15.080;2022-08-19T06:02:28;95832.88;;;20.42;75.79
53440;BME280;39333;47.044;15.080;2022-08-19T06:04:57;95827.91;;;20.27;73.65
53440;BME280;39333;47.044;15.080;2022-08-19T06:07:24;95821.72;;;20.26;71.05
53440;BME280;39333;47.044;15.080;2022-08-19T06:09:51;95812.56;;;20.27;69.86
53440;BME280;39333;47.044;15.080;2022-08-19T06:12:28;95809.88;;;20.36;68.75
53440;BME280;39333;47.044;15.080;2022-08-19T06:14:59;95814.22;;;20.54;68.46
53440;BME280;39333;47.044;15.080;2022-08-19T06:17:26;95814.22;;;20.80;68.97
53440;BME280;39333;47.044;15.080;2022-08-19T06:19:53;95806.63;;;21.00;71.39
53440;BME280;39333;47.044;15.080;2022-08-19T06:22:20;95798.84;;;20.98;69.05
53440;BME280;39333;47.044;15.080;2022-08-19T06:24:47;95814.56;;;21.05;68.96
53440;BME280;39333;47.044;15.080;2022-08-19T06:27:13;95813.13;;;21.07;69.88
53440;BME280;39333;47.044;15.080;2022-08-19T06:29:40;95818.34;;;21.12;67.25
53440;BME280;39333;47.044;15.080;2022-08-19T06:32:08;95810.91;;;21.26;68.40
53440;BME280;39333;47.044;15.080;2022-08-19T06:34:35;95824.53;;;21.39;69.10
53440;BME280;39333;47.044;15.080;2022-08-19T06:37:02;95838.03;;;21.39;67.22
53440;BME280;39333;47.044;15.080;2022-08-19T06:39:32;95827.84;;;21.44;65.51
53440;BME280;39333;47.044;15.080;2022-08-19T06:42:01;95838.19;;;21.34;63.09
53440;BME280;39333;47.044;15.080;2022-08-19T06:44:31;95850.72;;;21.21;64.08
53440;BME280;39333;47.044;15.080;2022-08-19T06:47:10;95865.75;;;21.05;64.16
53440;BME280;39333;47.044;15.080;2022-08-19T06:49:41;95857.66;;;20.96;65.22
53440;BME280;39333;47.044;15.080;2022-08-19T06:52:10;95856.56;;;20.88;65.33
53440;BME280;39333;47.044;15.080;2022-08-19T06:54:40;95866.72;;;20.91;66.17
53440;BME280;39333;47.044;15.080;2022-08-19T06:57:22;95868.59;;;20.91;65.70
53440;BME280;39333;47.044;15.080;2022-08-19T06:59:49;95874.75;;;20.83;66.15
53440;BME280;39333;47.044;15.080;2022-08-19T07:02:17;95877.78;;;20.73;66.22
53440;BME280;39333;47.044;15.080;2022-08-19T07:04:49;95886.63;;;20.65;66.21
53440;BME280;39333;47.044;15.080;2022-08-19T07:07:19;95896.09;;;20.53;65.52
53440;BME280;39333;47.044;15.080;2022-08-19T07:09:49;95890.84;;;20.48;65.93
53440;BME280;39333;47.044;15.080;2022-08-19T07:12:32;95894.00;;;20.42;66.06
53440;BME280;39333;47.044;15.080;2022-08-19T07:15:04;95887.34;;;20.39;67.13
53440;BME280;39333;47.044;15.080;2022-08-19T07:17:31;95900.00;;;20.39;67.97
53440;BME280;39333;47.044;15.080;2022-08-19T07:20:00;95887.66;;;20.46;67.47
53440;BME280;39333;47.044;15.080;2022-08-19T07:22:35;95884.34;;;20.49;68.26
53440;BME280;39333;47.044;15.080;2022-08-19T07:25:03;95869.47;;;20.43;67.42
53440;BME280;39333;47.044;15.080;2022-08-19T07:27:30;95879.94;;;20.53;67.09
53440;BME280;39333;47.044;15.080;2022-08-19T07:29:59;95879.00;;;20.67;68.23
53440;BME280;39333;47.044;15.080;2022-08-19T07:32:26;95877.91;;;20.68;67.49
53440;BME280;39333;47.044;15.080;2022-08-19T07:34:54;95860.50;;;20.74;66.34
53440;BME280;39333;47.044;15.080;2022-08-19T07:37:23;95851.47;;;20.87;66.88
53440;BME280;39333;47.044;15.080;2022-08-19T07:39:58;95851.16;;;20.97;66.92
53440;BME280;39333;47.044;15.080;2022-08-19T07:42:26;95864.16;;;21.12;67.21
53440;BME280;39333;47.044;15.080;2022-08-19T07:44:53;95861.94;;;21.14;67.08
53440;BME280;39333;47.044;15.080;2022-08-19T07:47:19;95860.41;;;21.22;67.79
53440;BME280;39333;47.044;15.080;2022-08-19T07:50:09;95832.94;;;21.37;67.54
53440;BME280;39333;47.044;15.080;2022-08-19T07:52:37;95835.94;;;21.53;66.90
53440;BME280;39333;47.044;15.080;2022-08-19T07:55:15;95835.88;;;21.70;68.28
53440;BME280;39333;47.044;15.080;2022-08-19T07:58:03;95853.31;;;21.81;66.71
53440;BME280;39333;47.044;15.080;2022-08-19T08:00:31;95847.28;;;21.84;67.24
53440;BME280;39333;47.044;15.080;2022-08-19T08:02:59;95859.19;;;21.83;66.63
53440;BME280;39333;47.044;15.080;2022-08-19T08:05:26;95856.84;;;21.73;68.11
53440;BME280;39333;47.044;15.080;2022-08-19T08:08:12;95855.56;;;21.71;67.70
53440;BME280;39333;47.044;15.080;2022-08-19T08:10:58;95858.06;;;21.76;67.96
53440;BME280;39333;47.044;15.080;2022-08-19T08:13:26;95849.09;;;22.10;67.10
53440;BME280;39333;47.044;15.080;2022-08-19T08:15:55;95854.94;;;22.50;66.85
53440;BME280;39333;47.044;15.080;2022-08-19T08:18:23;95853.44;;;22.61;66.68
53440;BME280;39333;47.044;15.080;2022-08-19T08:20:54;95850.81;;;22.52;66.38
53440;BME280;39333;47.044;15.080;2022-08-19T08:23:21;95841.31;;;22.46;65.10
53440;BME280;39333;47.044;15.080;2022-08-19T08:25:56;95852.16;;;22.67;65.04
53440;BME280;39333;47.044;15.080;2022-08-19T08:28:25;95852.41;;;22.74;64.96
53440;BME280;39333;47.044;15.080;2022-08-19T08:30:56;95847.13;;;22.86;64.65
53440;BME280;39333;47.044;15.080;2022-08-19T08:33:25;95840.53;;;22.96;63.50
53440;BME280;39333;47.044;15.080;2022-08-19T08:36:00;95846.53;;;23.01;64.03
53440;BME280;39333;47.044;15.080;2022-08-19T08:38:30;95848.63;;;22.96;65.53
53440;BME280;39333;47.044;15.080;2022-08-19T08:41:24;95843.22;;;23.17;65.99
53440;BME280;39333;47.044;15.080;2022-08-19T08:43:55;95819.28;;;23.60;64.20
53440;BME280;39333;47.044;15.080;2022-08-19T08:46:36;95816.41;;;23.45;64.50
53440;BME280;39333;47.044;15.080;2022-08-19T08:50:18;95808.91;;;23.29;64.78
53440;BME280;39333;47.044;15.080;2022-08-19T08:52:33;95790.66;;;23.59;65.57
53440;BME280;39333;47.044;15.080;2022-08-19T08:55:09;95786.03;;;23.72;61.87
53440;BME280;39333;47.044;15.080;2022-08-19T09:00:19;95806.38;;;23.90;61.99
53440;BME280;39333;47.044;15.080;2022-08-19T09:02:47;95826.25;;;24.06;62.03
53440;BME280;39333;47.044;15.080;2022-08-19T09:05:17;95834.09;;;24.32;61.19
53440;BME280;39333;47.044;15.080;2022-08-19T09:08:02;95824.66;;;24.79;60.73
53440;BME280;39333;47.044;15.080;2022-08-19T09:10:44;95824.22;;;24.76;57.67
53440;BME280;39333;47.044;15.080;2022-08-19T09:13:26;95820.81;;;24.80;57.53
53440;BME280;39333;47.044;15.080;2022-08-19T09:16:07;95816.09;;;25.17;56.91
53440;BME280;39333;47.044;15.080;2022-08-19T09:18:44;95806.41;;;25.59;56.75
53440;BME280;39333;47.044;15.080;2022-08-19T09:21:14;95806.31;;;26.31;52.45
53440;BME280;39333;47.044;15.080;2022-08-19T09:23:42;95817.06;;;26.59;49.95
53440;BME280;39333;47.044;15.080;2022-08-19T09:26:13;95808.56;;;27.14;50.99
53440;BME280;39333;47.044;15.080;2022-08-19T09:28:44;95804.03;;;27.61;48.85
53440;BME280;39333;47.044;15.080;2022-08-19T09:31:17;95802.47;;;27.02;47.39
53440;BME280;39333;47.044;15.080;2022-08-19T09:33:44;95793.16;;;26.33;48.29
53440;BME280;39333;47.044;15.080;2022-08-19T09:36:13;95791.56;;;26.00;49.59
53440;BME280;39333;47.044;15.080;2022-08-19T09:39:00;95796.66;;;25.86;52.56
53440;BME280;39333;47.044;15.080;2022-08-19T09:41:27;95785.09;;;25.89;53.10
53440;BME280;39333;47.044;15.080;2022-08-19T09:43:57;95772.31;;;25.74;52.67
53440;BME280;39333;47.044;15.080;2022-08-19T09:46:26;95753.31;;;25.30;53.28
53440;BME280;39333;47.044;15.080;2022-08-19T09:48:57;95751.13;;;25.64;53.63
53440;BME280;39333;47.044;15.080;2022-08-19T09:51:32;95766.50;;;26.23;51.11
53440;BME280;39333;47.044;15.080;2022-08-19T09:54:02;95779.00;;;26.94;50.87
53440;BME280;39333;47.044;15.080;2022-08-19T09:56:31;95781.25;;;27.49;48.53
53440;BME280;39333;47.044;15.080;2022-08-19T09:59:01;95789.31;;;27.84;48.80
53440;BME280;39333;47.044;15.080;2022-08-19T10:01:29;95808.69;;;28.25;47.94
53440;BME280;39333;47.044;15.080;2022-08-19T10:03:58;95820.03;;;28.53;45.46
53440;BME280;39333;47.044;15.080;2022-08-19T10:06:27;95818.72;;;28.70;46.60
53440;BME280;39333;47.044;15.080;2022-08-19T10:09:13;95816.63;;;28.34;44.84
53440;BME280;39333;47.044;15.080;2022-08-19T10:11:42;95810.31;;;28.07;46.05
53440;BME280;39333;47.044;15.080;2022-08-19T10:14:19;95820.66;;;27.98;46.47
53440;BME280;39333;47.044;15.080;2022-08-19T10:16:49;95815.94;;;27.72;46.98
53440;BME280;39333;47.044;15.080;2022-08-19T10:19:18;95812.94;;;27.19;49.91
53440;BME280;39333;47.044;15.080;2022-08-19T10:21:54;95817.94;;;27.17;47.09
53440;BME280;39333;47.044;15.080;2022-08-19T10:24:26;95819.31;;;27.27;48.59
53440;BME280;39333;47.044;15.080;2022-08-19T10:26:54;95835.50;;;27.20;53.09
53440;BME280;39333;47.044;15.080;2022-08-19T10:29:28;95833.41;;;27.13;49.33
53440;BME280;39333;47.044;15.080;2022-08-19T10:32:04;95835.78;;;27.34;52.92
53440;BME280;39333;47.044;15.080;2022-08-19T10:34:38;95817.66;;;27.41;50.82
53440;BME280;39333;47.044;15.080;2022-08-19T10:37:15;95797.84;;;26.87;48.58
53440;BME280;39333;47.044;15.080;2022-08-19T10:39:54;95804.91;;;26.37;51.13
53440;BME280;39333;47.044;15.080;2022-08-19T10:42:21;95810.78;;;26.39;51.85
53440;BME280;39333;47.044;15.080;2022-08-19T10:44:48;95804.47;;;26.35;50.67
53440;BME280;39333;47.044;15.080;2022-08-19T10:47:17;95796.31;;;26.35;53.41
53440;BME280;39333;47.044;15.080;2022-08-19T10:49:53;95784.47;;;26.43;53.49
53440;BME280;39333;47.044;15.080;2022-08-19T10:52:45;95790.41;;;26.83;50.56
53440;BME280;39333;47.044;15.080;2022-08-19T10:55:18;95788.06;;;26.15;50.16
53440;BME280;39333;47.044;15.080;2022-08-19T10:58:18;95773.97;;;26.26;52.02
53440;BME280;39333;47.044;15.080;2022-08-19T11:00:55;95787.91;;;26.08;51.60
53440;BME280;39333;47.044;15.080;2022-08-19T11:03:24;95785.09;;;26.21;53.77
53440;BME280;39333;47.044;15.080;2022-08-19T11:06:06;95798.69;;;26.71;53.86
53440;BME280;39333;47.044;15.080;2022-08-19T11:08:35;95818.38;;;26.49;50.30
53440;BME280;39333;47.044;15.080;2022-08-19T11:11:05;95829.66;;;26.67;52.19
53440;BME280;39333;47.044;15.080;2022-08-19T11:13:35;95832.63;;;27.51;51.18
53440;BME280;39333;47.044;15.080;2022-08-19T11:16:09;95828.72;;;28.13;47.40
53440;BME280;39333;47.044;15.080;2022-08-19T11:18:43;95838.91;;;28.66;48.66
53440;BME280;39333;47.044;15.080;2022-08-19T11:21:24;95838.06;;;29.14;45.66
53440;BME280;39333;47.044;15.080;2022-08-19T11:23:55;95821.47;;;28.97;45.92
53440;BME280;39333;47.044;15.080;2022-08-19T11:26:23;95802.66;;;28.16;45.24
53440;BME280;39333;47.044;15.080;2022-08-19T11:28:50;95801.28;;;28.26;47.49
53440;BME280;39333;47.044;15.080;2022-08-19T11:31:22;95823.34;;;28.40;48.09
53440;BME280;39333;47.044;15.080;2022-08-19T11:33:57;95832.72;;;28.42;48.99
53440;BME280;39333;47.044;15.080;2022-08-19T11:36:24;95819.81;;;28.66;48.13
53440;BME280;39333;47.044;15.080;2022-08-19T11:38:52;95825.69;;;28.18;47.89
53440;BME280;39333;47.044;15.080;2022-08-19T11:41:20;95814.97;;;27.83;50.09
53440;BME280;39333;47.044;15.080;2022-08-19T11:43:50;95813.84;;;28.07;49.42
53440;BME280;39333;47.044;15.080;2022-08-19T11:46:19;95810.75;;;28.58;50.45
53440;BME280;39333;47.044;15.080;2022-08-19T11:48:45;95801.31;;;29.08;50.69
53440;BME280;39333;47.044;15.080;2022-08-19T11:51:15;95797.34;;;29.66;47.40
53440;BME280;39333;47.044;15.080;2022-08-19T11:53:42;95784.34;;;29.96;48.55
53440;BME280;39333;47.044;15.080;2022-08-19T11:56:09;95785.75;;;29.79;46.66
53440;BME280;39333;47.044;15.080;2022-08-19T11:58:37;95794.59;;;30.03;47.29
53440;BME280;39333;47.044;15.080;2022-08-19T12:01:08;95788.34;;;30.06;45.64
53440;BME280;39333;47.044;15.080;2022-08-19T12:03:35;95784.81;;;28.98;47.08
53440;BME280;39333;47.044;15.080;2022-08-19T12:06:07;95789.16;;;28.76;47.09
53440;BME280;39333;47.044;15.080;2022-08-19T12:08:35;95780.59;;;28.47;46.67
53440;BME280;39333;47.044;15.080;2022-08-19T12:11:03;95775.59;;;29.06;44.49
53440;BME280;39333;47.044;15.080;2022-08-19T12:13:30;95779.28;;;28.64;45.30
53440;BME280;39333;47.044;15.080;2022-08-19T12:15:57;95775.94;;;28.48;45.97
53440;BME280;39333;47.044;15.080;2022-08-19T12:18:25;95755.41;;;27.82;47.18
53440;BME280;39333;47.044;15.080;2022-08-19T12:20:53;95759.31;;;28.57;48.71
53440;BME280;39333;47.044;15.080;2022-08-19T12:23:21;95749.94;;;29.14;46.41
53440;BME280;39333;47.044;15.080;2022-08-19T12:25:48;95747.03;;;29.33;47.00
53440;BME280;39333;47.044;15.080;2022-08-19T12:28:23;95754.84;;;29.68;46.14
53440;BME280;39333;47.044;15.080;2022-08-19T12:30:51;95751.06;;;30.31;47.12
53440;BME280;39333;47.044;15.080;2022-08-19T12:33:19;95751.66;;;30.07;43.34
53440;BME280;39333;47.044;15.080;2022-08-19T12:35:46;95752.19;;;30.81;41.84
53440;BME280;39333;47.044;15.080;2022-08-19T12:38:13;95756.16;;;31.02;44.65
53440;BME280;39333;47.044;15.080;2022-08-19T12:40:41;95777.69;;;31.03;44.58
53440;BME280;39333;47.044;15.080;2022-08-19T12:43:11;95773.19;;;30.63;40.87
53440;BME280;39333;47.044;15.080;2022-08-19T12:45:38;95771.97;;;30.06;42.02
53440;BME280;39333;47.044;15.080;2022-08-19T12:48:06;95782.38;;;29.22;43.22
53440;BME280;39333;47.044;15.080;2022-08-19T12:50:53;95786.53;;;29.09;44.02
53440;BME280;39333;47.044;15.080;2022-08-19T12:53:20;95789.59;;;29.04;44.89
53440;BME280;39333;47.044;15.080;2022-08-19T12:55:47;95793.56;;;29.10;46.41
53440;BME280;39333;47.044;15.080;2022-08-19T12:58:44;95783.84;;;28.83;43.82
53440;BME280;39333;47.044;15.080;2022-08-19T13:02:19;95766.53;;;28.72;46.80
53440;BME280;39333;47.044;15.080;2022-08-19T13:05:24;95766.78;;;29.23;43.55
53440;BME280;39333;47.044;15.080;2022-08-19T13:07:54;95773.44;;;29.22;47.53
53440;BME280;39333;47.044;15.080;2022-08-19T13:10:31;95780.34;;;29.46;44.98
53440;BME280;39333;47.044;15.080;2022-08-19T13:13:06;95781.00;;;29.36;43.85
53440;BME280;39333;47.044;15.080;2022-08-19T13:15:36;95768.72;;;29.22;45.00